Aviation Digital Data Service (ADDS)

Output produced by METARs form (1733 UTC 03 June 2020)
found at http://www.aviationweather.gov/metar/data/
 
METAR text: EGNX 031720Z 34010KT 300V010 9999 -RA BKN011 10/09 Q1010
Conditions at: EGNX (EAST MIDLANDS , GB) observed 1720 UTC 03 June 2020
Temperature: 10.0°C (50°F)
Dewpoint: 9.0°C (48°F) [RH = 93%]
Pressure (altimeter): 29.82 inches Hg (1010.0 mb)
Winds: from the NNW (340 degrees) at 12 MPH (10 knots; 5.1 m/s)
Visibility: 6 or more miles (10+ km)
Ceiling: 1100 feet AGL
Clouds: broken clouds at 1100 feet AGL
Weather: -RA  (light rain)

METAR text: EGNX 031650Z 35011KT 310V040 9999 BKN010 BKN017 10/09 Q1010 RERA
Conditions at: EGNX (EAST MIDLANDS , GB) observed 1650 UTC 03 June 2020
Temperature: 10.0°C (50°F)
Dewpoint: 9.0°C (48°F) [RH = 93%]
Pressure (altimeter): 29.82 inches Hg (1010.0 mb)
Winds: from the N (350 degrees) at 13 MPH (11 knots; 5.7 m/s)
Visibility: 6 or more miles (10+ km)
Ceiling: 1000 feet AGL
Clouds: broken clouds at 1000 feet AGL
broken clouds at 1700 feet AGL
Weather: no significant weather observed at this time

METAR text: EGNX 031620Z 35009KT 300V030 7000 RA BKN010 11/10 Q1010
Conditions at: EGNX (EAST MIDLANDS , GB) observed 1620 UTC 03 June 2020
Temperature: 11.0°C (52°F)
Dewpoint: 10.0°C (50°F) [RH = 94%]
Pressure (altimeter): 29.82 inches Hg (1010.0 mb)
Winds: from the N (350 degrees) at 10 MPH (9 knots; 4.6 m/s)
Visibility: 4 miles ( 7 km)
Ceiling: 1000 feet AGL
Clouds: broken clouds at 1000 feet AGL
Weather: RA  (moderate rain)

METAR text: EGNX 031550Z 36010KT 8000 -RA BKN008 11/10 Q1010 REDZ
Conditions at: EGNX (EAST MIDLANDS , GB) observed 1550 UTC 03 June 2020
Temperature: 11.0°C (52°F)
Dewpoint: 10.0°C (50°F) [RH = 94%]
Pressure (altimeter): 29.82 inches Hg (1010.0 mb)
Winds: from the N (360 degrees) at 12 MPH (10 knots; 5.1 m/s)
Visibility: 5 miles ( 8 km)
Ceiling: 800 feet AGL
Clouds: broken clouds at 800 feet AGL
Weather: -RA  (light rain)

METAR text: EGNX 031520Z 34011KT 310V020 6000 DZ BKN006 OVC017 11/10 Q1010
Conditions at: EGNX (EAST MIDLANDS , GB) observed 1520 UTC 03 June 2020
Temperature: 11.0°C (52°F)
Dewpoint: 10.0°C (50°F) [RH = 94%]
Pressure (altimeter): 29.82 inches Hg (1010.0 mb)
Winds: from the NNW (340 degrees) at 13 MPH (11 knots; 5.7 m/s)
Visibility: 4 miles ( 6 km)
Ceiling: 600 feet AGL
Clouds: broken clouds at 600 feet AGL
overcast cloud deck at 1700 feet AGL
Weather: DZ  (moderate drizzle)

METAR text: EGNX 031450Z 35011KT 320V030 9999 -RA BKN007 12/10 Q1010 RERA
Conditions at: EGNX (EAST MIDLANDS , GB) observed 1450 UTC 03 June 2020
Temperature: 12.0°C (54°F)
Dewpoint: 10.0°C (50°F) [RH = 88%]
Pressure (altimeter): 29.82 inches Hg (1010.0 mb)
Winds: from the N (350 degrees) at 13 MPH (11 knots; 5.7 m/s)
Visibility: 6 or more miles (10+ km)
Ceiling: 700 feet AGL
Clouds: broken clouds at 700 feet AGL
Weather: -RA  (light rain)

METAR text: EGNX 031420Z 34009KT 310V020 9999 RA BKN008 12/10 Q1010
Conditions at: EGNX (EAST MIDLANDS , GB) observed 1420 UTC 03 June 2020
Temperature: 12.0°C (54°F)
Dewpoint: 10.0°C (50°F) [RH = 88%]
Pressure (altimeter): 29.82 inches Hg (1010.0 mb)
Winds: from the NNW (340 degrees) at 10 MPH (9 knots; 4.6 m/s)
Visibility: 6 or more miles (10+ km)
Ceiling: 800 feet AGL
Clouds: broken clouds at 800 feet AGL
Weather: RA  (moderate rain)

METAR text: EGNX 031350Z 36008KT 310V030 9999 SCT015 13/10 Q1010
Conditions at: EGNX (EAST MIDLANDS , GB) observed 1350 UTC 03 June 2020
Temperature: 13.0°C (55°F)
Dewpoint: 10.0°C (50°F) [RH = 82%]
Pressure (altimeter): 29.82 inches Hg (1010.0 mb)
Winds: from the N (360 degrees) at 9 MPH (8 knots; 4.1 m/s)
Visibility: 6 or more miles (10+ km)
Ceiling: at least 12,000 feet AGL
Clouds: scattered clouds at 1500 feet AGL
Weather: no significant weather observed at this time

METAR text: EGNX 031220Z 36008KT 320V030 9999 SCT009 BKN023 12/11 Q1010
Conditions at: EGNX (EAST MIDLANDS , GB) observed 1220 UTC 03 June 2020
Temperature: 12.0°C (54°F)
Dewpoint: 11.0°C (52°F) [RH = 94%]
Pressure (altimeter): 29.82 inches Hg (1010.0 mb)
Winds: from the N (360 degrees) at 9 MPH (8 knots; 4.1 m/s)
Visibility: 6 or more miles (10+ km)
Ceiling: 2300 feet AGL
Clouds: scattered clouds at 900 feet AGL
broken clouds at 2300 feet AGL
Weather: no significant weather observed at this time

METAR text: EGNX 031150Z 36009KT 330V030 9999 -RA BKN009 BKN024 12/11 Q1010 RERA
Conditions at: EGNX (EAST MIDLANDS , GB) observed 1150 UTC 03 June 2020
Temperature: 12.0°C (54°F)
Dewpoint: 11.0°C (52°F) [RH = 94%]
Pressure (altimeter): 29.82 inches Hg (1010.0 mb)
Winds: from the N (360 degrees) at 10 MPH (9 knots; 4.6 m/s)
Visibility: 6 or more miles (10+ km)
Ceiling: 900 feet AGL
Clouds: broken clouds at 900 feet AGL
broken clouds at 2400 feet AGL
Weather: -RA  (light rain)

METAR text: EGNX 031120Z 36008KT 330V030 9999 RA BKN010 BKN023 12/11 Q1010
Conditions at: EGNX (EAST MIDLANDS , GB) observed 1120 UTC 03 June 2020
Temperature: 12.0°C (54°F)
Dewpoint: 11.0°C (52°F) [RH = 94%]
Pressure (altimeter): 29.82 inches Hg (1010.0 mb)
Winds: from the N (360 degrees) at 9 MPH (8 knots; 4.1 m/s)
Visibility: 6 or more miles (10+ km)
Ceiling: 1000 feet AGL
Clouds: broken clouds at 1000 feet AGL
broken clouds at 2300 feet AGL
Weather: RA  (moderate rain)

METAR text: EGNX 031050Z 01008KT 320V030 9999 -RA SCT009 BKN016 13/11 Q1010
Conditions at: EGNX (EAST MIDLANDS , GB) observed 1050 UTC 03 June 2020
Temperature: 13.0°C (55°F)
Dewpoint: 11.0°C (52°F) [RH = 88%]
Pressure (altimeter): 29.82 inches Hg (1010.0 mb)
Winds: from the N (10 degrees) at 9 MPH (8 knots; 4.1 m/s)
Visibility: 6 or more miles (10+ km)
Ceiling: 1600 feet AGL
Clouds: scattered clouds at 900 feet AGL
broken clouds at 1600 feet AGL
Weather: -RA  (light rain)

METAR text: EGNX 031020Z 01009KT 330V040 9999 BKN010 13/11 Q1010
Conditions at: EGNX (EAST MIDLANDS , GB) observed 1020 UTC 03 June 2020
Temperature: 13.0°C (55°F)
Dewpoint: 11.0°C (52°F) [RH = 88%]
Pressure (altimeter): 29.82 inches Hg (1010.0 mb)
Winds: from the N (10 degrees) at 10 MPH (9 knots; 4.6 m/s)
Visibility: 6 or more miles (10+ km)
Ceiling: 1000 feet AGL
Clouds: broken clouds at 1000 feet AGL
Weather: no significant weather observed at this time

METAR text: EGNX 030950Z 01007KT 9999 BKN010 12/11 Q1010
Conditions at: EGNX (EAST MIDLANDS , GB) observed 0950 UTC 03 June 2020
Temperature: 12.0°C (54°F)
Dewpoint: 11.0°C (52°F) [RH = 94%]
Pressure (altimeter): 29.82 inches Hg (1010.0 mb)
Winds: from the N (10 degrees) at 8 MPH (7 knots; 3.6 m/s)
Visibility: 6 or more miles (10+ km)
Ceiling: 1000 feet AGL
Clouds: broken clouds at 1000 feet AGL
Weather: no significant weather observed at this time

METAR text: EGNX 030920Z 01007KT 330V050 9999 SCT011 BKN038 12/10 Q1010
Conditions at: EGNX (EAST MIDLANDS , GB) observed 0920 UTC 03 June 2020
Temperature: 12.0°C (54°F)
Dewpoint: 10.0°C (50°F) [RH = 88%]
Pressure (altimeter): 29.82 inches Hg (1010.0 mb)
Winds: from the N (10 degrees) at 8 MPH (7 knots; 3.6 m/s)
Visibility: 6 or more miles (10+ km)
Ceiling: 3800 feet AGL
Clouds: scattered clouds at 1100 feet AGL
broken clouds at 3800 feet AGL
Weather: no significant weather observed at this time

METAR text: EGNX 030850Z 01008KT 9999 SCT018 BKN045 12/10 Q1011
Conditions at: EGNX (EAST MIDLANDS , GB) observed 0850 UTC 03 June 2020
Temperature: 12.0°C (54°F)
Dewpoint: 10.0°C (50°F) [RH = 88%]
Pressure (altimeter): 29.85 inches Hg (1011.0 mb)
Winds: from the N (10 degrees) at 9 MPH (8 knots; 4.1 m/s)
Visibility: 6 or more miles (10+ km)
Ceiling: 4500 feet AGL
Clouds: scattered clouds at 1800 feet AGL
broken clouds at 4500 feet AGL
Weather: no significant weather observed at this time

METAR text: EGNX 030820Z 36007KT 330V030 9999 SCT018 BKN045 12/10 Q1011
Conditions at: EGNX (EAST MIDLANDS , GB) observed 0820 UTC 03 June 2020
Temperature: 12.0°C (54°F)
Dewpoint: 10.0°C (50°F) [RH = 88%]
Pressure (altimeter): 29.85 inches Hg (1011.0 mb)
Winds: from the N (360 degrees) at 8 MPH (7 knots; 3.6 m/s)
Visibility: 6 or more miles (10+ km)
Ceiling: 4500 feet AGL
Clouds: scattered clouds at 1800 feet AGL
broken clouds at 4500 feet AGL
Weather: no significant weather observed at this time

METAR text: EGNX 030750Z 01007KT 9999 -RA SCT022 12/10 Q1011
Conditions at: EGNX (EAST MIDLANDS , GB) observed 0750 UTC 03 June 2020
Temperature: 12.0°C (54°F)
Dewpoint: 10.0°C (50°F) [RH = 88%]
Pressure (altimeter): 29.85 inches Hg (1011.0 mb)
Winds: from the N (10 degrees) at 8 MPH (7 knots; 3.6 m/s)
Visibility: 6 or more miles (10+ km)
Ceiling: at least 12,000 feet AGL
Clouds: scattered clouds at 2200 feet AGL
Weather: -RA  (light rain)

METAR text: EGNX 030720Z 01007KT 310V030 9999 -DZ FEW015 SCT049 12/09 Q1011
Conditions at: EGNX (EAST MIDLANDS , GB) observed 0720 UTC 03 June 2020
Temperature: 12.0°C (54°F)
Dewpoint: 9.0°C (48°F) [RH = 82%]
Pressure (altimeter): 29.85 inches Hg (1011.0 mb)
Winds: from the N (10 degrees) at 8 MPH (7 knots; 3.6 m/s)
Visibility: 6 or more miles (10+ km)
Ceiling: at least 12,000 feet AGL
Clouds: few clouds at 1500 feet AGL
scattered clouds at 4900 feet AGL
Weather: -DZ  (light drizzle)

METAR text: EGNX 030650Z 36007KT 9999 -RA SCT049 12/09 Q1011
Conditions at: EGNX (EAST MIDLANDS , GB) observed 0650 UTC 03 June 2020
Temperature: 12.0°C (54°F)
Dewpoint: 9.0°C (48°F) [RH = 82%]
Pressure (altimeter): 29.85 inches Hg (1011.0 mb)
Winds: from the N (360 degrees) at 8 MPH (7 knots; 3.6 m/s)
Visibility: 6 or more miles (10+ km)
Ceiling: at least 12,000 feet AGL
Clouds: scattered clouds at 4900 feet AGL
Weather: -RA  (light rain)

METAR text: EGNX 030620Z 01007KT 330V040 9999 -RA SCT048 12/09 Q1011
Conditions at: EGNX (EAST MIDLANDS , GB) observed 0620 UTC 03 June 2020
Temperature: 12.0°C (54°F)
Dewpoint: 9.0°C (48°F) [RH = 82%]
Pressure (altimeter): 29.85 inches Hg (1011.0 mb)
Winds: from the N (10 degrees) at 8 MPH (7 knots; 3.6 m/s)
Visibility: 6 or more miles (10+ km)
Ceiling: at least 12,000 feet AGL
Clouds: scattered clouds at 4800 feet AGL
Weather: -RA  (light rain)

METAR text: EGNX 030550Z 01006KT 340V040 9999 -RA FEW010 SCT045 13/08 Q1011
Conditions at: EGNX (EAST MIDLANDS , GB) observed 0550 UTC 03 June 2020
Temperature: 13.0°C (55°F)
Dewpoint: 8.0°C (46°F) [RH = 72%]
Pressure (altimeter): 29.85 inches Hg (1011.0 mb)
Winds: from the N (10 degrees) at 7 MPH (6 knots; 3.1 m/s)
Visibility: 6 or more miles (10+ km)
Ceiling: at least 12,000 feet AGL
Clouds: few clouds at 1000 feet AGL
scattered clouds at 4500 feet AGL
Weather: -RA  (light rain)

METAR text: EGNX 030520Z 36005KT 310V030 9999 FEW042 13/08 Q1011
Conditions at: EGNX (EAST MIDLANDS , GB) observed 0520 UTC 03 June 2020
Temperature: 13.0°C (55°F)
Dewpoint: 8.0°C (46°F) [RH = 72%]
Pressure (altimeter): 29.85 inches Hg (1011.0 mb)
Winds: from the N (360 degrees) at 6 MPH (5 knots; 2.6 m/s)
Visibility: 6 or more miles (10+ km)
Ceiling: at least 12,000 feet AGL
Clouds: few clouds at 4200 feet AGL
Weather: no significant weather observed at this time

METAR text: EGNX 030450Z 36006KT 300V030 9999 -RA SCT040 13/09 Q1010
Conditions at: EGNX (EAST MIDLANDS , GB) observed 0450 UTC 03 June 2020
Temperature: 13.0°C (55°F)
Dewpoint: 9.0°C (48°F) [RH = 77%]
Pressure (altimeter): 29.82 inches Hg (1010.0 mb)
Winds: from the N (360 degrees) at 7 MPH (6 knots; 3.1 m/s)
Visibility: 6 or more miles (10+ km)
Ceiling: at least 12,000 feet AGL
Clouds: scattered clouds at 4000 feet AGL
Weather: -RA  (light rain)

METAR text: EGNX 030420Z 35004KT 310V040 9999 SCT048 14/09 Q1010
Conditions at: EGNX (EAST MIDLANDS , GB) observed 0420 UTC 03 June 2020
Temperature: 14.0°C (57°F)
Dewpoint: 9.0°C (48°F) [RH = 72%]
Pressure (altimeter): 29.82 inches Hg (1010.0 mb)
Winds: from the N (350 degrees) at 5 MPH (4 knots; 2.1 m/s)
Visibility: 6 or more miles (10+ km)
Ceiling: at least 12,000 feet AGL
Clouds: scattered clouds at 4800 feet AGL
Weather: no significant weather observed at this time

METAR text: EGNX 030350Z 03003KT CAVOK 14/08 Q1010
Conditions at: EGNX (EAST MIDLANDS , GB) observed 0350 UTC 03 June 2020
Temperature: 14.0°C (57°F)
Dewpoint: 8.0°C (46°F) [RH = 67%]
Pressure (altimeter): 29.82 inches Hg (1010.0 mb)
Winds: from the NNE (30 degrees) at 3 MPH (3 knots; 1.5 m/s)
Visibility: 6 or more miles (10+ km)
Ceiling: ceiling and visibility are OK
Clouds: unknown
Weather: no significant weather observed at this time

METAR text: EGNX 030320Z 02004KT 340V050 CAVOK 14/07 Q1011
Conditions at: EGNX (EAST MIDLANDS , GB) observed 0320 UTC 03 June 2020
Temperature: 14.0°C (57°F)
Dewpoint: 7.0°C (45°F) [RH = 63%]
Pressure (altimeter): 29.85 inches Hg (1011.0 mb)
Winds: from the NNE (20 degrees) at 5 MPH (4 knots; 2.1 m/s)
Visibility: 6 or more miles (10+ km)
Ceiling: ceiling and visibility are OK
Clouds: unknown
Weather: no significant weather observed at this time

METAR text: EGNX 030250Z 04004KT CAVOK 14/07 Q1011
Conditions at: EGNX (EAST MIDLANDS , GB) observed 0250 UTC 03 June 2020
Temperature: 14.0°C (57°F)
Dewpoint: 7.0°C (45°F) [RH = 63%]
Pressure (altimeter): 29.85 inches Hg (1011.0 mb)
Winds: from the NE (40 degrees) at 5 MPH (4 knots; 2.1 m/s)
Visibility: 6 or more miles (10+ km)
Ceiling: ceiling and visibility are OK
Clouds: unknown
Weather: no significant weather observed at this time

METAR text: EGNX 030220Z VRB03KT CAVOK 14/07 Q1011
Conditions at: EGNX (EAST MIDLANDS , GB) observed 0220 UTC 03 June 2020
Temperature: 14.0°C (57°F)
Dewpoint: 7.0°C (45°F) [RH = 63%]
Pressure (altimeter): 29.85 inches Hg (1011.0 mb)
Winds: variable direction winds at 3 MPH (3 knots; 1.5 m/s)
Visibility: 6 or more miles (10+ km)
Ceiling: ceiling and visibility are OK
Clouds: unknown
Weather: no significant weather observed at this time

METAR text: EGNX 030150Z VRB03KT CAVOK 14/07 Q1011
Conditions at: EGNX (EAST MIDLANDS , GB) observed 0150 UTC 03 June 2020
Temperature: 14.0°C (57°F)
Dewpoint: 7.0°C (45°F) [RH = 63%]
Pressure (altimeter): 29.85 inches Hg (1011.0 mb)
Winds: variable direction winds at 3 MPH (3 knots; 1.5 m/s)
Visibility: 6 or more miles (10+ km)
Ceiling: ceiling and visibility are OK
Clouds: unknown
Weather: no significant weather observed at this time

METAR text: EGNX 030120Z 05005KT CAVOK 14/08 Q1012
Conditions at: EGNX (EAST MIDLANDS , GB) observed 0120 UTC 03 June 2020
Temperature: 14.0°C (57°F)
Dewpoint: 8.0°C (46°F) [RH = 67%]
Pressure (altimeter): 29.88 inches Hg (1012.0 mb)
Winds: from the NE (50 degrees) at 6 MPH (5 knots; 2.6 m/s)
Visibility: 6 or more miles (10+ km)
Ceiling: ceiling and visibility are OK
Clouds: unknown
Weather: no significant weather observed at this time

METAR text: EGNX 030050Z 03004KT CAVOK 14/08 Q1012
Conditions at: EGNX (EAST MIDLANDS , GB) observed 0050 UTC 03 June 2020
Temperature: 14.0°C (57°F)
Dewpoint: 8.0°C (46°F) [RH = 67%]
Pressure (altimeter): 29.88 inches Hg (1012.0 mb)
Winds: from the NNE (30 degrees) at 5 MPH (4 knots; 2.1 m/s)
Visibility: 6 or more miles (10+ km)
Ceiling: ceiling and visibility are OK
Clouds: unknown
Weather: no significant weather observed at this time

METAR text: EGNX 030020Z VRB03KT CAVOK 14/09 Q1012
Conditions at: EGNX (EAST MIDLANDS , GB) observed 0020 UTC 03 June 2020
Temperature: 14.0°C (57°F)
Dewpoint: 9.0°C (48°F) [RH = 72%]
Pressure (altimeter): 29.88 inches Hg (1012.0 mb)
Winds: variable direction winds at 3 MPH (3 knots; 1.5 m/s)
Visibility: 6 or more miles (10+ km)
Ceiling: ceiling and visibility are OK
Clouds: unknown
Weather: no significant weather observed at this time

METAR text: EGNX 022350Z 05004KT CAVOK 15/09 Q1012
Conditions at: EGNX (EAST MIDLANDS , GB) observed 2350 UTC 02 June 2020
Temperature: 15.0°C (59°F)
Dewpoint: 9.0°C (48°F) [RH = 67%]
Pressure (altimeter): 29.88 inches Hg (1012.0 mb)
Winds: from the NE (50 degrees) at 5 MPH (4 knots; 2.1 m/s)
Visibility: 6 or more miles (10+ km)
Ceiling: ceiling and visibility are OK
Clouds: unknown
Weather: no significant weather observed at this time

METAR text: EGNX 022320Z 29005KT CAVOK 16/09 Q1013
Conditions at: EGNX (EAST MIDLANDS , GB) observed 2320 UTC 02 June 2020
Temperature: 16.0°C (61°F)
Dewpoint: 9.0°C (48°F) [RH = 63%]
Pressure (altimeter): 29.91 inches Hg (1013.0 mb)
Winds: from the WNW (290 degrees) at 6 MPH (5 knots; 2.6 m/s)
Visibility: 6 or more miles (10+ km)
Ceiling: ceiling and visibility are OK
Clouds: unknown
Weather: no significant weather observed at this time

METAR text: EGNX 022250Z VRB02KT CAVOK 15/08 Q1013
Conditions at: EGNX (EAST MIDLANDS , GB) observed 2250 UTC 02 June 2020
Temperature: 15.0°C (59°F)
Dewpoint: 8.0°C (46°F) [RH = 63%]
Pressure (altimeter): 29.91 inches Hg (1013.0 mb)
Winds: variable direction winds at 2 MPH (2 knots; 1.0 m/s)
Visibility: 6 or more miles (10+ km)
Ceiling: ceiling and visibility are OK
Clouds: unknown
Weather: no significant weather observed at this time

METAR text: EGNX 022220Z 13005KT CAVOK 17/08 Q1013
Conditions at: EGNX (EAST MIDLANDS , GB) observed 2220 UTC 02 June 2020
Temperature: 17.0°C (63°F)
Dewpoint: 8.0°C (46°F) [RH = 55%]
Pressure (altimeter): 29.91 inches Hg (1013.0 mb)
Winds: from the SE (130 degrees) at 6 MPH (5 knots; 2.6 m/s)
Visibility: 6 or more miles (10+ km)
Ceiling: ceiling and visibility are OK
Clouds: unknown
Weather: no significant weather observed at this time

METAR text: EGNX 022150Z 10006KT 070V170 CAVOK 17/08 Q1014
Conditions at: EGNX (EAST MIDLANDS , GB) observed 2150 UTC 02 June 2020
Temperature: 17.0°C (63°F)
Dewpoint: 8.0°C (46°F) [RH = 55%]
Pressure (altimeter): 29.94 inches Hg (1014.0 mb)
Winds: from the E (100 degrees) at 7 MPH (6 knots; 3.1 m/s)
Visibility: 6 or more miles (10+ km)
Ceiling: ceiling and visibility are OK
Clouds: unknown
Weather: no significant weather observed at this time

METAR text: EGNX 022120Z 22004KT 160V290 CAVOK 19/07 Q1014
Conditions at: EGNX (EAST MIDLANDS , GB) observed 2120 UTC 02 June 2020
Temperature: 19.0°C (66°F)
Dewpoint: 7.0°C (45°F) [RH = 46%]
Pressure (altimeter): 29.94 inches Hg (1014.0 mb)
Winds: from the SW (220 degrees) at 5 MPH (4 knots; 2.1 m/s)
Visibility: 6 or more miles (10+ km)
Ceiling: ceiling and visibility are OK
Clouds: unknown
Weather: no significant weather observed at this time

METAR text: EGNX 022050Z 27003KT CAVOK 19/07 Q1014
Conditions at: EGNX (EAST MIDLANDS , GB) observed 2050 UTC 02 June 2020
Temperature: 19.0°C (66°F)
Dewpoint: 7.0°C (45°F) [RH = 46%]
Pressure (altimeter): 29.94 inches Hg (1014.0 mb)
Winds: from the W (270 degrees) at 3 MPH (3 knots; 1.5 m/s)
Visibility: 6 or more miles (10+ km)
Ceiling: ceiling and visibility are OK
Clouds: unknown
Weather: no significant weather observed at this time

METAR text: EGNX 022020Z 30004KT 260V340 CAVOK 19/07 Q1014
Conditions at: EGNX (EAST MIDLANDS , GB) observed 2020 UTC 02 June 2020
Temperature: 19.0°C (66°F)
Dewpoint: 7.0°C (45°F) [RH = 46%]
Pressure (altimeter): 29.94 inches Hg (1014.0 mb)
Winds: from the WNW (300 degrees) at 5 MPH (4 knots; 2.1 m/s)
Visibility: 6 or more miles (10+ km)
Ceiling: ceiling and visibility are OK
Clouds: unknown
Weather: no significant weather observed at this time

METAR text: EGNX 021950Z 09004KT CAVOK 21/01 Q1014
Conditions at: EGNX (EAST MIDLANDS , GB) observed 1950 UTC 02 June 2020
Temperature: 21.0°C (70°F)
Dewpoint: 1.0°C (34°F) [RH = 26%]
Pressure (altimeter): 29.94 inches Hg (1014.0 mb)
Winds: from the E (90 degrees) at 5 MPH (4 knots; 2.1 m/s)
Visibility: 6 or more miles (10+ km)
Ceiling: ceiling and visibility are OK
Clouds: unknown
Weather: no significant weather observed at this time

METAR text: EGNX 021820Z 01004KT 300V050 CAVOK 22/02 Q1015
Conditions at: EGNX (EAST MIDLANDS , GB) observed 1820 UTC 02 June 2020
Temperature: 22.0°C (72°F)
Dewpoint: 2.0°C (36°F) [RH = 27%]
Pressure (altimeter): 29.97 inches Hg (1015.0 mb)
Winds: from the N (10 degrees) at 5 MPH (4 knots; 2.1 m/s)
Visibility: 6 or more miles (10+ km)
Ceiling: ceiling and visibility are OK
Clouds: unknown
Weather: no significant weather observed at this time

METAR text: EGNX 021750Z 34005KT 300V070 CAVOK 24/04 Q1015
Conditions at: EGNX (EAST MIDLANDS , GB) observed 1750 UTC 02 June 2020
Temperature: 24.0°C (75°F)
Dewpoint: 4.0°C (39°F) [RH = 27%]
Pressure (altimeter): 29.97 inches Hg (1015.0 mb)
Winds: from the NNW (340 degrees) at 6 MPH (5 knots; 2.6 m/s)
Visibility: 6 or more miles (10+ km)
Ceiling: ceiling and visibility are OK
Clouds: unknown
Weather: no significant weather observed at this time

METAR text: EGNX 021720Z 03004KT 300V060 CAVOK 24/03 Q1015
Conditions at: EGNX (EAST MIDLANDS , GB) observed 1720 UTC 02 June 2020
Temperature: 24.0°C (75°F)
Dewpoint: 3.0°C (37°F) [RH = 25%]
Pressure (altimeter): 29.97 inches Hg (1015.0 mb)
Winds: from the NNE (30 degrees) at 5 MPH (4 knots; 2.1 m/s)
Visibility: 6 or more miles (10+ km)
Ceiling: ceiling and visibility are OK
Clouds: unknown
Weather: no significant weather observed at this time

METAR text: EGNX 021650Z 33005KT 290V030 CAVOK 23/03 Q1016
Conditions at: EGNX (EAST MIDLANDS , GB) observed 1650 UTC 02 June 2020
Temperature: 23.0°C (73°F)
Dewpoint: 3.0°C (37°F) [RH = 27%]
Pressure (altimeter): 30.00 inches Hg (1016.0 mb)
Winds: from the NNW (330 degrees) at 6 MPH (5 knots; 2.6 m/s)
Visibility: 6 or more miles (10+ km)
Ceiling: ceiling and visibility are OK
Clouds: unknown
Weather: no significant weather observed at this time

METAR text: EGNX 021620Z VRB03KT CAVOK 24/03 Q1016
Conditions at: EGNX (EAST MIDLANDS , GB) observed 1620 UTC 02 June 2020
Temperature: 24.0°C (75°F)
Dewpoint: 3.0°C (37°F) [RH = 25%]
Pressure (altimeter): 30.00 inches Hg (1016.0 mb)
Winds: variable direction winds at 3 MPH (3 knots; 1.5 m/s)
Visibility: 6 or more miles (10+ km)
Ceiling: ceiling and visibility are OK
Clouds: unknown
Weather: no significant weather observed at this time

METAR text: EGNX 021550Z 29005KT 200V010 CAVOK 24/03 Q1016
Conditions at: EGNX (EAST MIDLANDS , GB) observed 1550 UTC 02 June 2020
Temperature: 24.0°C (75°F)
Dewpoint: 3.0°C (37°F) [RH = 25%]
Pressure (altimeter): 30.00 inches Hg (1016.0 mb)
Winds: from the WNW (290 degrees) at 6 MPH (5 knots; 2.6 m/s)
Visibility: 6 or more miles (10+ km)
Ceiling: ceiling and visibility are OK
Clouds: unknown
Weather: no significant weather observed at this time

METAR text: EGNX 021520Z VRB02KT CAVOK 23/02 Q1017
Conditions at: EGNX (EAST MIDLANDS , GB) observed 1520 UTC 02 June 2020
Temperature: 23.0°C (73°F)
Dewpoint: 2.0°C (36°F) [RH = 25%]
Pressure (altimeter): 30.03 inches Hg (1017.0 mb)
Winds: variable direction winds at 2 MPH (2 knots; 1.0 m/s)
Visibility: 6 or more miles (10+ km)
Ceiling: ceiling and visibility are OK
Clouds: unknown
Weather: no significant weather observed at this time

METAR text: EGNX 021450Z 33005KT 270V050 CAVOK 23/02 Q1017
Conditions at: EGNX (EAST MIDLANDS , GB) observed 1450 UTC 02 June 2020
Temperature: 23.0°C (73°F)
Dewpoint: 2.0°C (36°F) [RH = 25%]
Pressure (altimeter): 30.03 inches Hg (1017.0 mb)
Winds: from the NNW (330 degrees) at 6 MPH (5 knots; 2.6 m/s)
Visibility: 6 or more miles (10+ km)
Ceiling: ceiling and visibility are OK
Clouds: unknown
Weather: no significant weather observed at this time

METAR text: EGNX 021420Z VRB03KT CAVOK 23/02 Q1018
Conditions at: EGNX (EAST MIDLANDS , GB) observed 1420 UTC 02 June 2020
Temperature: 23.0°C (73°F)
Dewpoint: 2.0°C (36°F) [RH = 25%]
Pressure (altimeter): 30.06 inches Hg (1018.0 mb)
Winds: variable direction winds at 3 MPH (3 knots; 1.5 m/s)
Visibility: 6 or more miles (10+ km)
Ceiling: ceiling and visibility are OK
Clouds: unknown
Weather: no significant weather observed at this time

METAR text: EGNX 021350Z VRB05KT CAVOK 22/02 Q1018
Conditions at: EGNX (EAST MIDLANDS , GB) observed 1350 UTC 02 June 2020
Temperature: 22.0°C (72°F)
Dewpoint: 2.0°C (36°F) [RH = 27%]
Pressure (altimeter): 30.06 inches Hg (1018.0 mb)
Winds: variable direction winds at 6 MPH (5 knots; 2.6 m/s)
Visibility: 6 or more miles (10+ km)
Ceiling: ceiling and visibility are OK
Clouds: unknown
Weather: no significant weather observed at this time

METAR text: EGNX 021320Z 35006KT 290V070 CAVOK 21/02 Q1019
Conditions at: EGNX (EAST MIDLANDS , GB) observed 1320 UTC 02 June 2020
Temperature: 21.0°C (70°F)
Dewpoint: 2.0°C (36°F) [RH = 28%]
Pressure (altimeter): 30.09 inches Hg (1019.0 mb)
Winds: from the N (350 degrees) at 7 MPH (6 knots; 3.1 m/s)
Visibility: 6 or more miles (10+ km)
Ceiling: ceiling and visibility are OK
Clouds: unknown
Weather: no significant weather observed at this time

METAR text: EGNX 021220Z VRB05KT CAVOK 21/03 Q1019
Conditions at: EGNX (EAST MIDLANDS , GB) observed 1220 UTC 02 June 2020
Temperature: 21.0°C (70°F)
Dewpoint: 3.0°C (37°F) [RH = 30%]
Pressure (altimeter): 30.09 inches Hg (1019.0 mb)
Winds: variable direction winds at 6 MPH (5 knots; 2.6 m/s)
Visibility: 6 or more miles (10+ km)
Ceiling: ceiling and visibility are OK
Clouds: unknown
Weather: no significant weather observed at this time

METAR text: EGNX 021150Z VRB05KT CAVOK 20/04 Q1020
Conditions at: EGNX (EAST MIDLANDS , GB) observed 1150 UTC 02 June 2020
Temperature: 20.0°C (68°F)
Dewpoint: 4.0°C (39°F) [RH = 35%]
Pressure (altimeter): 30.12 inches Hg (1020.0 mb)
Winds: variable direction winds at 6 MPH (5 knots; 2.6 m/s)
Visibility: 6 or more miles (10+ km)
Ceiling: ceiling and visibility are OK
Clouds: unknown
Weather: no significant weather observed at this time

METAR text: EGNX 021120Z 35005KT 270V060 CAVOK 19/05 Q1020
Conditions at: EGNX (EAST MIDLANDS , GB) observed 1120 UTC 02 June 2020
Temperature: 19.0°C (66°F)
Dewpoint: 5.0°C (41°F) [RH = 40%]
Pressure (altimeter): 30.12 inches Hg (1020.0 mb)
Winds: from the N (350 degrees) at 6 MPH (5 knots; 2.6 m/s)
Visibility: 6 or more miles (10+ km)
Ceiling: ceiling and visibility are OK
Clouds: unknown
Weather: no significant weather observed at this time

METAR text: EGNX 021050Z VRB05KT CAVOK 19/06 Q1020
Conditions at: EGNX (EAST MIDLANDS , GB) observed 1050 UTC 02 June 2020
Temperature: 19.0°C (66°F)
Dewpoint: 6.0°C (43°F) [RH = 43%]
Pressure (altimeter): 30.12 inches Hg (1020.0 mb)
Winds: variable direction winds at 6 MPH (5 knots; 2.6 m/s)
Visibility: 6 or more miles (10+ km)
Ceiling: ceiling and visibility are OK
Clouds: unknown
Weather: no significant weather observed at this time

METAR text: EGNX 021020Z 32004KT 250V030 CAVOK 18/06 Q1020
Conditions at: EGNX (EAST MIDLANDS , GB) observed 1020 UTC 02 June 2020
Temperature: 18.0°C (64°F)
Dewpoint: 6.0°C (43°F) [RH = 45%]
Pressure (altimeter): 30.12 inches Hg (1020.0 mb)
Winds: from the NW (320 degrees) at 5 MPH (4 knots; 2.1 m/s)
Visibility: 6 or more miles (10+ km)
Ceiling: ceiling and visibility are OK
Clouds: unknown
Weather: no significant weather observed at this time

METAR text: EGNX 020950Z 29005KT 240V340 CAVOK 18/07 Q1021
Conditions at: EGNX (EAST MIDLANDS , GB) observed 0950 UTC 02 June 2020
Temperature: 18.0°C (64°F)
Dewpoint: 7.0°C (45°F) [RH = 49%]
Pressure (altimeter): 30.15 inches Hg (1021.0 mb)
Winds: from the WNW (290 degrees) at 6 MPH (5 knots; 2.6 m/s)
Visibility: 6 or more miles (10+ km)
Ceiling: ceiling and visibility are OK
Clouds: unknown
Weather: no significant weather observed at this time

METAR text: EGNX 020920Z 31006KT 260V350 CAVOK 18/06 Q1021
Conditions at: EGNX (EAST MIDLANDS , GB) observed 0920 UTC 02 June 2020
Temperature: 18.0°C (64°F)
Dewpoint: 6.0°C (43°F) [RH = 45%]
Pressure (altimeter): 30.15 inches Hg (1021.0 mb)
Winds: from the NW (310 degrees) at 7 MPH (6 knots; 3.1 m/s)
Visibility: 6 or more miles (10+ km)
Ceiling: ceiling and visibility are OK
Clouds: unknown
Weather: no significant weather observed at this time

METAR text: EGNX 020850Z 34004KT 270V030 CAVOK 17/07 Q1021
Conditions at: EGNX (EAST MIDLANDS , GB) observed 0850 UTC 02 June 2020
Temperature: 17.0°C (63°F)
Dewpoint: 7.0°C (45°F) [RH = 52%]
Pressure (altimeter): 30.15 inches Hg (1021.0 mb)
Winds: from the NNW (340 degrees) at 5 MPH (4 knots; 2.1 m/s)
Visibility: 6 or more miles (10+ km)
Ceiling: ceiling and visibility are OK
Clouds: unknown
Weather: no significant weather observed at this time

METAR text: EGNX 020820Z 36004KT 310V050 CAVOK 16/07 Q1022
Conditions at: EGNX (EAST MIDLANDS , GB) observed 0820 UTC 02 June 2020
Temperature: 16.0°C (61°F)
Dewpoint: 7.0°C (45°F) [RH = 55%]
Pressure (altimeter): 30.18 inches Hg (1022.0 mb)
Winds: from the N (360 degrees) at 5 MPH (4 knots; 2.1 m/s)
Visibility: 6 or more miles (10+ km)
Ceiling: ceiling and visibility are OK
Clouds: unknown
Weather: no significant weather observed at this time

METAR text: EGNX 020750Z 32004KT 270V360 CAVOK 15/08 Q1022
Conditions at: EGNX (EAST MIDLANDS , GB) observed 0750 UTC 02 June 2020
Temperature: 15.0°C (59°F)
Dewpoint: 8.0°C (46°F) [RH = 63%]
Pressure (altimeter): 30.18 inches Hg (1022.0 mb)
Winds: from the NW (320 degrees) at 5 MPH (4 knots; 2.1 m/s)
Visibility: 6 or more miles (10+ km)
Ceiling: ceiling and visibility are OK
Clouds: unknown
Weather: no significant weather observed at this time

METAR text: EGNX 020720Z VRB03KT CAVOK 14/08 Q1022
Conditions at: EGNX (EAST MIDLANDS , GB) observed 0720 UTC 02 June 2020
Temperature: 14.0°C (57°F)
Dewpoint: 8.0°C (46°F) [RH = 67%]
Pressure (altimeter): 30.18 inches Hg (1022.0 mb)
Winds: variable direction winds at 3 MPH (3 knots; 1.5 m/s)
Visibility: 6 or more miles (10+ km)
Ceiling: ceiling and visibility are OK
Clouds: unknown
Weather: no significant weather observed at this time

METAR text: EGNX 020650Z 34004KT 280V030 CAVOK 12/08 Q1022
Conditions at: EGNX (EAST MIDLANDS , GB) observed 0650 UTC 02 June 2020
Temperature: 12.0°C (54°F)
Dewpoint: 8.0°C (46°F) [RH = 76%]
Pressure (altimeter): 30.18 inches Hg (1022.0 mb)
Winds: from the NNW (340 degrees) at 5 MPH (4 knots; 2.1 m/s)
Visibility: 6 or more miles (10+ km)
Ceiling: ceiling and visibility are OK
Clouds: unknown
Weather: no significant weather observed at this time

METAR text: EGNX 020550Z 31004KT 280V350 CAVOK 10/08 Q1022
Conditions at: EGNX (EAST MIDLANDS , GB) observed 0550 UTC 02 June 2020
Temperature: 10.0°C (50°F)
Dewpoint: 8.0°C (46°F) [RH = 87%]
Pressure (altimeter): 30.18 inches Hg (1022.0 mb)
Winds: from the NW (310 degrees) at 5 MPH (4 knots; 2.1 m/s)
Visibility: 6 or more miles (10+ km)
Ceiling: ceiling and visibility are OK
Clouds: unknown
Weather: no significant weather observed at this time

Forecast for: EGNX (EAST MIDLANDS , GB)
Text: TAF EGNX 031657Z 0318/0418 35008KT 9999 SCT020
Forecast period: 1800 UTC 03 June 2020 to 1800 UTC 04 June 2020
Forecast type: FROM: standard forecast or significant change
Winds: from the N (350 degrees) at 9 MPH (8 knots; 4.1 m/s)
Visibility: 6 or more miles 10+ km)
Ceiling: at least 12,000 feet AGL
Clouds: scattered clouds at 2000 feet AGL
Weather: no significant weather forecast for this period
Text: TEMPO 0318/0401 7000 -RA BKN014
Forecast period: 1800 UTC 03 June 2020 to 0100 UTC 04 June 2020
Forecast type: TEMPORARY: The following changes expected for less than half the time period
Visibility: 4 miles (7 km)
Ceiling: 1400 feet AGL
Clouds: broken clouds at 1400 feet AGL
Weather: -RA  (light rain)
Text: PROB30
Forecast period: 1800 to 2000 UTC 03 June 2020
Forecast type: TEMPORARY: The following changes expected for less than half the time period
Visibility: missing
Ceiling: 700 feet AGL
Clouds: broken clouds at 700 feet AGL
Weather: no significant weather forecast for this period
Text: TEMPO 0318/0320 BKN007
Forecast period: 1200 to 1800 UTC 04 June 2020
Forecast type: TEMPORARY: The following changes expected for less than half the time period
Visibility: 4 miles (6 km)
Ceiling: unknown
Clouds: missing
Weather: SHRA  (rain showers)